Wetterdaten: Woche 12.09.16 - 18.09.16 (KW37)
Datum Zeit Temperatur Luftfeuchte Luftdruck Niederschlag Windrichtung Sonnenschein Solar Wind
12.09.2016 00:00 16,6 C 94 % 1015,2 hPa 0,0 l/m N 0,00 h 0 W/m 0,0 km/h (0 Bft)
12.09.2016 01:00 16,1 C 94 % 1015,1 hPa 0,0 l/m N 0,00 h 0 W/m 0,4 km/h (0 Bft)
12.09.2016 02:00 15,4 C 95 % 1015,0 hPa 0,0 l/m N 0,00 h 0 W/m 0,1 km/h (0 Bft)
12.09.2016 03:00 14,7 C 96 % 1014,9 hPa 0,0 l/m N 0,00 h 0 W/m 0,0 km/h (0 Bft)
12.09.2016 04:00 14,3 C 97 % 1014,6 hPa 0,0 l/m N 0,00 h 0 W/m 0,0 km/h (0 Bft)
12.09.2016 05:00 13,6 C 97 % 1014,8 hPa 0,0 l/m N 0,00 h 0 W/m 0,0 km/h (0 Bft)
12.09.2016 06:00 13,3 C 98 % 1015,0 hPa 0,0 l/m N 0,00 h 5 W/m 0,0 km/h (0 Bft)
12.09.2016 07:00 13,1 C 98 % 1015,4 hPa 0,0 l/m N 0,50 h 52 W/m 0,0 km/h (0 Bft)
12.09.2016 08:00 14,3 C 98 % 1015,6 hPa 0,0 l/m N 0,83 h 184 W/m 0,1 km/h (0 Bft)
12.09.2016 09:00 17,2 C 92 % 1015,7 hPa 0,0 l/m O 1,00 h 380 W/m 5,9 km/h (2 Bft)
12.09.2016 10:00 20,4 C 82 % 1015,7 hPa 0,0 l/m O-SO 0,92 h 473 W/m 7,2 km/h (2 Bft)
12.09.2016 11:00 23,0 C 72 % 1015,6 hPa 0,0 l/m SW 1,00 h 625 W/m 9,3 km/h (2 Bft)
12.09.2016 12:00 24,9 C 65 % 1015,3 hPa 0,0 l/m SW 1,00 h 681 W/m 10,8 km/h (2 Bft)
12.09.2016 13:00 26,3 C 61 % 1015,1 hPa 0,0 l/m SW 1,00 h 684 W/m 11,8 km/h (2 Bft)
12.09.2016 14:00 27,3 C 56 % 1014,7 hPa 0,0 l/m S 1,00 h 643 W/m 12,5 km/h (3 Bft)
12.09.2016 15:00 27,9 C 53 % 1014,5 hPa 0,0 l/m SW 1,00 h 552 W/m 10,8 km/h (2 Bft)
12.09.2016 16:00 27,8 C 53 % 1014,0 hPa 0,0 l/m SW 1,00 h 420 W/m 9,5 km/h (2 Bft)
12.09.2016 17:00 27,5 C 52 % 1013,8 hPa 0,0 l/m SW 1,00 h 261 W/m 5,1 km/h (1 Bft)
12.09.2016 18:00 25,6 C 60 % 1013,6 hPa 0,0 l/m N 0,25 h 83 W/m 1,5 km/h (1 Bft)
12.09.2016 19:00 21,4 C 77 % 1013,8 hPa 0,0 l/m N 0,00 h 11 W/m 0,0 km/h (0 Bft)
12.09.2016 20:00 19,5 C 81 % 1014,4 hPa 0,0 l/m N 0,00 h 0 W/m 0,3 km/h (0 Bft)
12.09.2016 21:00 18,1 C 86 % 1014,6 hPa 0,0 l/m N 0,00 h 0 W/m 0,0 km/h (0 Bft)
12.09.2016 22:00 17,0 C 90 % 1014,6 hPa 0,0 l/m N 0,00 h 0 W/m 0,0 km/h (0 Bft)
12.09.2016 23:00 16,3 C 91 % 1015,0 hPa 0,0 l/m N 0,00 h 0 W/m 0,7 km/h (0 Bft)
13.09.2016 00:00 15,6 C 93 % 1014,9 hPa 0,0 l/m N 0,00 h 0 W/m 0,0 km/h (0 Bft)
13.09.2016 01:00 15,3 C 95 % 1014,8 hPa 0,0 l/m N 0,00 h 0 W/m 0,0 km/h (0 Bft)
13.09.2016 02:00 14,9 C 96 % 1014,6 hPa 0,0 l/m N 0,00 h 0 W/m 0,0 km/h (0 Bft)
13.09.2016 03:00 14,3 C 96 % 1014,4 hPa 0,0 l/m N 0,00 h 0 W/m 0,0 km/h (0 Bft)
13.09.2016 04:00 13,9 C 97 % 1014,2 hPa 0,0 l/m N 0,00 h 0 W/m 0,0 km/h (0 Bft)
13.09.2016 05:00 13,6 C 97 % 1014,0 hPa 0,0 l/m N 0,00 h 0 W/m 0,0 km/h (0 Bft)
13.09.2016 06:00 13,1 C 98 % 1014,0 hPa 0,0 l/m N 0,00 h 5 W/m 0,0 km/h (0 Bft)
13.09.2016 07:00 13,3 C 98 % 1014,4 hPa 0,0 l/m N 0,67 h 53 W/m 0,1 km/h (0 Bft)
13.09.2016 08:00 15,1 C 97 % 1014,5 hPa 0,0 l/m N 0,83 h 173 W/m 0,0 km/h (0 Bft)
13.09.2016 09:00 18,0 C 87 % 1014,5 hPa 0,0 l/m SW 1,00 h 361 W/m 0,0 km/h (0 Bft)
13.09.2016 10:00 20,5 C 75 % 1014,5 hPa 0,0 l/m SW 0,92 h 465 W/m 5,6 km/h (1 Bft)
13.09.2016 11:00 23,1 C 66 % 1013,9 hPa 0,0 l/m SO 1,00 h 617 W/m 4,7 km/h (1 Bft)
13.09.2016 12:00 25,4 C 57 % 1013,3 hPa 0,0 l/m SO 1,00 h 679 W/m 5,9 km/h (2 Bft)
13.09.2016 13:00 27,0 C 53 % 1012,7 hPa 0,0 l/m O 1,00 h 682 W/m 10,5 km/h (2 Bft)
13.09.2016 14:00 28,1 C 49 % 1012,1 hPa 0,0 l/m NO 1,00 h 638 W/m 10,8 km/h (2 Bft)
13.09.2016 15:00 28,7 C 43 % 1011,6 hPa 0,0 l/m O 1,00 h 545 W/m 12,6 km/h (3 Bft)
13.09.2016 16:00 28,6 C 43 % 1011,1 hPa 0,0 l/m O 1,00 h 419 W/m 15,3 km/h (3 Bft)
13.09.2016 17:00 27,9 C 48 % 1010,5 hPa 0,0 l/m O-NO 1,00 h 254 W/m 13,8 km/h (3 Bft)
13.09.2016 18:00 26,8 C 51 % 1010,3 hPa 0,0 l/m O 0,17 h 81 W/m 11,9 km/h (2 Bft)
13.09.2016 19:00 23,7 C 61 % 1010,1 hPa 0,0 l/m N 0,08 h 15 W/m 1,1 km/h (0 Bft)
13.09.2016 20:00 20,1 C 75 % 1010,2 hPa 0,0 l/m N 0,00 h 0 W/m 0,0 km/h (0 Bft)
13.09.2016 21:00 18,9 C 78 % 1010,2 hPa 0,0 l/m N 0,00 h 0 W/m 0,1 km/h (0 Bft)
13.09.2016 22:00 18,0 C 81 % 1010,1 hPa 0,0 l/m O 0,00 h 0 W/m 2,1 km/h (1 Bft)
13.09.2016 23:00 17,9 C 84 % 1010,1 hPa 0,0 l/m O 0,00 h 0 W/m 3,3 km/h (1 Bft)
14.09.2016 00:00 17,4 C 87 % 1010,1 hPa 0,0 l/m O 0,00 h 0 W/m 2,0 km/h (1 Bft)
14.09.2016 01:00 16,7 C 90 % 1009,9 hPa 0,0 l/m O 0,00 h 0 W/m 2,0 km/h (1 Bft)
14.09.2016 02:00 16,0 C 92 % 1009,9 hPa 0,0 l/m N 0,00 h 0 W/m 0,3 km/h (0 Bft)
14.09.2016 03:00 15,3 C 94 % 1009,9 hPa 0,0 l/m N 0,00 h 0 W/m 0,0 km/h (0 Bft)
14.09.2016 04:00 14,9 C 96 % 1009,8 hPa 0,0 l/m N 0,00 h 0 W/m 0,8 km/h (0 Bft)
14.09.2016 05:00 14,4 C 96 % 1009,9 hPa 0,0 l/m N 0,00 h 0 W/m 0,4 km/h (0 Bft)
14.09.2016 06:00 14,2 C 97 % 1010,0 hPa 0,0 l/m N 0,00 h 5 W/m 0,1 km/h (0 Bft)
14.09.2016 07:00 14,2 C 97 % 1010,4 hPa 0,0 l/m N 0,67 h 48 W/m 0,0 km/h (0 Bft)
14.09.2016 08:00 15,2 C 96 % 1010,6 hPa 0,0 l/m N 0,67 h 158 W/m 1,5 km/h (1 Bft)
14.09.2016 09:00 17,1 C 91 % 1010,7 hPa 0,0 l/m N 1,00 h 362 W/m 0,8 km/h (0 Bft)
14.09.2016 10:00 19,9 C 82 % 1010,7 hPa 0,0 l/m S 0,92 h 462 W/m 3,9 km/h (1 Bft)
14.09.2016 11:00 22,3 C 75 % 1010,6 hPa 0,0 l/m SW 1,00 h 605 W/m 9,5 km/h (2 Bft)
14.09.2016 12:00 24,2 C 70 % 1010,5 hPa 0,0 l/m SW 1,00 h 665 W/m 7,9 km/h (2 Bft)
14.09.2016 13:00 25,5 C 63 % 1010,2 hPa 0,0 l/m W-SW 1,00 h 678 W/m 6,0 km/h (2 Bft)
14.09.2016 14:00 26,7 C 57 % 1009,7 hPa 0,0 l/m SO 1,00 h 636 W/m 6,5 km/h (2 Bft)
14.09.2016 15:00 27,3 C 53 % 1009,2 hPa 0,0 l/m NO 1,00 h 534 W/m 9,8 km/h (2 Bft)
14.09.2016 16:00 27,7 C 49 % 1008,9 hPa 0,0 l/m O 1,00 h 410 W/m 10,2 km/h (2 Bft)
14.09.2016 17:00 27,4 C 50 % 1008,6 hPa 0,0 l/m O 1,00 h 248 W/m 11,8 km/h (2 Bft)
14.09.2016 18:00 26,1 C 57 % 1008,6 hPa 0,0 l/m O 0,08 h 73 W/m 10,5 km/h (2 Bft)
14.09.2016 19:00 22,5 C 71 % 1008,8 hPa 0,0 l/m N 0,08 h 10 W/m 0,9 km/h (0 Bft)
14.09.2016 20:00 19,7 C 81 % 1009,1 hPa 0,0 l/m N 0,00 h 0 W/m 0,0 km/h (0 Bft)
14.09.2016 21:00 18,4 C 85 % 1009,0 hPa 0,0 l/m N 0,00 h 0 W/m 0,5 km/h (0 Bft)
14.09.2016 22:00 18,1 C 87 % 1008,8 hPa 0,0 l/m N 0,00 h 0 W/m 0,7 km/h (0 Bft)
14.09.2016 23:00 17,6 C 89 % 1008,4 hPa 0,0 l/m N 0,00 h 0 W/m 0,5 km/h (0 Bft)
15.09.2016 00:00 17,0 C 91 % 1008,1 hPa 0,0 l/m N 0,00 h 0 W/m 0,8 km/h (0 Bft)
15.09.2016 01:00 16,6 C 92 % 1007,7 hPa 0,0 l/m N 0,00 h 0 W/m 0,5 km/h (0 Bft)
15.09.2016 02:00 16,0 C 94 % 1007,3 hPa 0,0 l/m N 0,00 h 0 W/m 0,0 km/h (0 Bft)
15.09.2016 03:00 15,3 C 95 % 1006,9 hPa 0,0 l/m N 0,00 h 0 W/m 1,6 km/h (1 Bft)
15.09.2016 04:00 14,7 C 96 % 1006,8 hPa 0,0 l/m N 0,00 h 0 W/m 1,6 km/h (1 Bft)
15.09.2016 05:00 14,1 C 97 % 1006,6 hPa 0,0 l/m N 0,00 h 0 W/m 0,0 km/h (0 Bft)
15.09.2016 06:00 13,5 C 97 % 1006,7 hPa 0,0 l/m N 0,00 h 5 W/m 0,3 km/h (0 Bft)
15.09.2016 07:00 13,4 C 98 % 1006,9 hPa 0,0 l/m N 0,50 h 46 W/m 1,1 km/h (0 Bft)
15.09.2016 08:00 14,5 C 98 % 1007,0 hPa 0,0 l/m NO 0,75 h 169 W/m 0,9 km/h (0 Bft)
15.09.2016 09:00 16,6 C 93 % 1007,1 hPa 0,0 l/m O-NO 1,00 h 350 W/m 4,4 km/h (1 Bft)
15.09.2016 10:00 19,4 C 83 % 1007,5 hPa 0,0 l/m NO 0,92 h 473 W/m 3,2 km/h (1 Bft)
15.09.2016 11:00 22,7 C 70 % 1008,0 hPa 0,0 l/m W-SW 0,92 h 582 W/m 8,2 km/h (2 Bft)
15.09.2016 12:00 22,3 C 66 % 1008,3 hPa 0,0 l/m W-SW 0,33 h 412 W/m 14,9 km/h (3 Bft)
15.09.2016 13:00 21,1 C 74 % 1008,7 hPa 0,0 l/m S-SW 0,00 h 235 W/m 13,4 km/h (3 Bft)
15.09.2016 14:00 20,7 C 80 % 1008,7 hPa 0,0 l/m S-SW 0,00 h 261 W/m 11,4 km/h (2 Bft)
15.09.2016 15:00 20,6 C 80 % 1008,7 hPa 0,0 l/m S-SW 0,00 h 231 W/m 10,2 km/h (2 Bft)
15.09.2016 16:00 21,0 C 79 % 1008,8 hPa 0,0 l/m SW 0,50 h 310 W/m 12,1 km/h (2 Bft)
15.09.2016 17:00 20,9 C 80 % 1008,8 hPa 0,0 l/m SW 0,42 h 213 W/m 7,1 km/h (2 Bft)
15.09.2016 18:00 20,1 C 83 % 1009,1 hPa 0,0 l/m SW 0,08 h 53 W/m 5,6 km/h (1 Bft)
15.09.2016 19:00 18,4 C 89 % 1009,2 hPa 0,0 l/m N 0,08 h 19 W/m 1,2 km/h (1 Bft)
15.09.2016 20:00 17,6 C 91 % 1010,0 hPa 0,0 l/m SW 0,00 h 0 W/m 4,4 km/h (1 Bft)
15.09.2016 21:00 17,3 C 92 % 1010,7 hPa 0,0 l/m N 0,00 h 0 W/m 0,0 km/h (0 Bft)
15.09.2016 22:00 16,5 C 93 % 1011,4 hPa 0,0 l/m SW 0,00 h 0 W/m 1,2 km/h (1 Bft)
15.09.2016 23:00 15,9 C 89 % 1011,8 hPa 0,0 l/m W-SW 0,00 h 0 W/m 5,5 km/h (1 Bft)
16.09.2016 00:00 14,6 C 91 % 1012,1 hPa 0,0 l/m N 0,00 h 0 W/m 0,0 km/h (0 Bft)
16.09.2016 01:00 14,4 C 93 % 1012,4 hPa 0,0 l/m W 0,00 h 0 W/m 0,5 km/h (0 Bft)
16.09.2016 02:00 14,0 C 94 % 1012,8 hPa 0,0 l/m N 0,00 h 0 W/m 0,0 km/h (0 Bft)
16.09.2016 03:00 13,7 C 96 % 1012,9 hPa 0,0 l/m N 0,00 h 0 W/m 0,0 km/h (0 Bft)
16.09.2016 04:00 13,3 C 96 % 1012,6 hPa 0,0 l/m N 0,00 h 0 W/m 0,0 km/h (0 Bft)
16.09.2016 05:00 12,7 C 97 % 1012,5 hPa 0,0 l/m N 0,00 h 0 W/m 0,0 km/h (0 Bft)
16.09.2016 06:00 12,7 C 97 % 1012,3 hPa 0,0 l/m N 0,00 h 5 W/m 0,0 km/h (0 Bft)
16.09.2016 07:00 12,8 C 97 % 1012,5 hPa 0,0 l/m N 0,00 h 23 W/m 0,0 km/h (0 Bft)
16.09.2016 08:00 13,7 C 97 % 1012,7 hPa 0,0 l/m N 0,08 h 100 W/m 0,3 km/h (0 Bft)
16.09.2016 09:00 15,6 C 89 % 1012,5 hPa 0,0 l/m N 1,00 h 366 W/m 0,0 km/h (0 Bft)
16.09.2016 10:00 18,4 C 73 % 1012,5 hPa 0,0 l/m W-NW 1,00 h 510 W/m 0,0 km/h (0 Bft)
16.09.2016 11:00 19,7 C 66 % 1012,0 hPa 0,0 l/m N-NW 0,83 h 539 W/m 6,1 km/h (2 Bft)
16.09.2016 12:00 18,9 C 71 % 1011,9 hPa 0,0 l/m N-NW 0,00 h 183 W/m 4,9 km/h (1 Bft)
16.09.2016 13:00 20,1 C 67 % 1011,7 hPa 0,0 l/m NW 0,83 h 589 W/m 8,2 km/h (2 Bft)
16.09.2016 14:00 20,8 C 64 % 1011,2 hPa 0,0 l/m N-NO 0,50 h 290 W/m 7,4 km/h (2 Bft)
16.09.2016 15:00 18,2 C 85 % 1011,1 hPa 1,8 l/m N-NO 0,00 h 203 W/m 3,8 km/h (1 Bft)
16.09.2016 16:00 18,1 C 83 % 1010,8 hPa 0,0 l/m N 0,00 h 113 W/m 5,5 km/h (1 Bft)
16.09.2016 17:00 16,7 C 87 % 1010,6 hPa 0,6 l/m S-SO 0,00 h 18 W/m 6,0 km/h (2 Bft)
16.09.2016 18:00 15,2 C 94 % 1011,2 hPa 9,2 l/m W-SW 0,00 h 5 W/m 2,3 km/h (1 Bft)
16.09.2016 19:00 14,1 C 97 % 1011,5 hPa 6,0 l/m N 0,00 h 0 W/m 0,0 km/h (0 Bft)
16.09.2016 20:00 13,7 C 97 % 1011,8 hPa 1,0 l/m N 0,00 h 0 W/m 0,3 km/h (0 Bft)
16.09.2016 21:00 13,7 C 98 % 1012,4 hPa 3,2 l/m N 0,00 h 0 W/m 0,3 km/h (0 Bft)
16.09.2016 22:00 13,6 C 98 % 1012,6 hPa 3,0 l/m N 0,00 h 0 W/m 0,0 km/h (0 Bft)
16.09.2016 23:00 13,6 C 99 % 1012,6 hPa 2,6 l/m N 0,00 h 0 W/m 0,5 km/h (0 Bft)
17.09.2016 00:00 13,4 C 99 % 1012,5 hPa 2,2 l/m W-SW 0,00 h 0 W/m 3,9 km/h (1 Bft)
17.09.2016 01:00 13,1 C 99 % 1012,4 hPa 0,0 l/m W-SW 0,00 h 0 W/m 3,7 km/h (1 Bft)
17.09.2016 02:00 13,1 C 99 % 1012,4 hPa 0,0 l/m SW 0,00 h 0 W/m 7,1 km/h (2 Bft)
17.09.2016 03:00 12,8 C 99 % 1012,1 hPa 0,0 l/m SW 0,00 h 0 W/m 6,5 km/h (2 Bft)
17.09.2016 04:00 12,8 C 99 % 1012,1 hPa 0,0 l/m SW 0,00 h 0 W/m 4,4 km/h (1 Bft)
17.09.2016 05:00 12,5 C 99 % 1012,0 hPa 0,0 l/m N 0,00 h 0 W/m 0,0 km/h (0 Bft)
17.09.2016 06:00 12,3 C 99 % 1012,1 hPa 0,0 l/m N 0,00 h 0 W/m 0,1 km/h (0 Bft)
17.09.2016 07:00 12,3 C 99 % 1012,3 hPa 0,0 l/m N 0,00 h 20 W/m 0,0 km/h (0 Bft)
17.09.2016 08:00 12,5 C 99 % 1012,4 hPa 0,0 l/m SW 0,00 h 99 W/m 1,1 km/h (0 Bft)
17.09.2016 09:00 13,0 C 98 % 1012,7 hPa 0,0 l/m SW 0,00 h 94 W/m 2,3 km/h (1 Bft)
17.09.2016 10:00 14,0 C 94 % 1012,9 hPa 0,0 l/m SW 0,42 h 279 W/m 4,7 km/h (1 Bft)
17.09.2016 11:00 15,5 C 87 % 1012,4 hPa 0,0 l/m W 1,00 h 569 W/m 12,1 km/h (2 Bft)
17.09.2016 12:00 17,0 C 79 % 1012,1 hPa 0,0 l/m W 0,92 h 689 W/m 12,6 km/h (3 Bft)
17.09.2016 13:00 17,6 C 74 % 1011,9 hPa 0,0 l/m W-SW 0,75 h 555 W/m 12,5 km/h (3 Bft)
17.09.2016 14:00 17,6 C 77 % 1011,7 hPa 0,0 l/m S-SW 0,67 h 464 W/m 15,3 km/h (3 Bft)
17.09.2016 15:00 17,3 C 77 % 1011,6 hPa 0,0 l/m W-SW 0,00 h 242 W/m 8,8 km/h (2 Bft)
17.09.2016 16:00 16,8 C 78 % 1011,7 hPa 1,0 l/m W 0,00 h 76 W/m 7,5 km/h (2 Bft)
17.09.2016 17:00 14,5 C 93 % 1012,0 hPa 0,2 l/m N 0,00 h 12 W/m 0,1 km/h (0 Bft)
17.09.2016 18:00 13,9 C 95 % 1012,1 hPa 0,0 l/m N 0,00 h 17 W/m 0,0 km/h (0 Bft)
17.09.2016 19:00 13,8 C 97 % 1012,1 hPa 0,0 l/m N 0,00 h 7 W/m 0,1 km/h (0 Bft)
17.09.2016 20:00 13,8 C 97 % 1012,4 hPa 0,0 l/m N 0,00 h 0 W/m 0,0 km/h (0 Bft)
17.09.2016 21:00 13,9 C 97 % 1012,8 hPa 0,8 l/m N 0,00 h 0 W/m 0,0 km/h (0 Bft)
17.09.2016 22:00 13,5 C 98 % 1012,8 hPa 0,2 l/m N 0,00 h 0 W/m 0,1 km/h (0 Bft)
17.09.2016 23:00 12,7 C 98 % 1012,6 hPa 0,8 l/m NW 0,00 h 0 W/m 1,9 km/h (1 Bft)
18.09.2016 00:00 12,4 C 97 % 1012,3 hPa 0,2 l/m NW 0,00 h 0 W/m 4,8 km/h (1 Bft)
18.09.2016 01:00 12,4 C 97 % 1011,9 hPa 0,4 l/m W 0,00 h 0 W/m 7,6 km/h (2 Bft)
18.09.2016 02:00 12,3 C 98 % 1011,5 hPa 0,6 l/m W 0,00 h 0 W/m 8,1 km/h (2 Bft)
18.09.2016 03:00 12,3 C 98 % 1011,0 hPa 0,2 l/m W-SW 0,00 h 0 W/m 10,1 km/h (2 Bft)
18.09.2016 04:00 12,3 C 98 % 1010,7 hPa 1,0 l/m W-SW 0,00 h 0 W/m 11,3 km/h (2 Bft)
18.09.2016 05:00 12,2 C 98 % 1010,4 hPa 1,8 l/m W-SW 0,00 h 0 W/m 10,9 km/h (2 Bft)
18.09.2016 06:00 12,0 C 98 % 1010,1 hPa 0,6 l/m SW 0,00 h 0 W/m 10,6 km/h (2 Bft)
18.09.2016 07:00 12,0 C 98 % 1010,0 hPa 0,6 l/m W-SW 0,00 h 10 W/m 9,4 km/h (2 Bft)
18.09.2016 08:00 12,1 C 99 % 1009,8 hPa 0,8 l/m SW 0,00 h 30 W/m 9,4 km/h (2 Bft)
18.09.2016 09:00 12,2 C 99 % 1009,9 hPa 0,2 l/m W-SW 0,00 h 60 W/m 14,2 km/h (3 Bft)
18.09.2016 10:00 12,5 C 98 % 1010,1 hPa 0,0 l/m W-SW 0,00 h 109 W/m 16,1 km/h (3 Bft)
18.09.2016 11:00 12,8 C 98 % 1010,2 hPa 0,6 l/m W-SW 0,00 h 143 W/m 12,6 km/h (3 Bft)
18.09.2016 12:00 13,0 C 97 % 1010,2 hPa 0,8 l/m W-SW 0,00 h 114 W/m 12,3 km/h (3 Bft)
18.09.2016 13:00 13,4 C 98 % 1010,3 hPa 0,2 l/m W-SW 0,00 h 157 W/m 10,7 km/h (2 Bft)
18.09.2016 14:00 13,2 C 97 % 1010,3 hPa 0,4 l/m W-SW 0,00 h 93 W/m 12,9 km/h (3 Bft)
18.09.2016 15:00 13,3 C 98 % 1010,2 hPa 0,6 l/m SW 0,00 h 125 W/m 12,9 km/h (3 Bft)
18.09.2016 16:00 13,2 C 98 % 1010,2 hPa 2,4 l/m SW 0,00 h 69 W/m 12,2 km/h (2 Bft)
18.09.2016 17:00 13,1 C 98 % 1010,1 hPa 0,2 l/m W-SW 0,00 h 28 W/m 9,9 km/h (2 Bft)
18.09.2016 18:00 13,1 C 98 % 1010,3 hPa 0,0 l/m W-SW 0,00 h 13 W/m 7,8 km/h (2 Bft)
18.09.2016 19:00 13,1 C 98 % 1010,4 hPa 0,2 l/m W 0,00 h 0 W/m 6,0 km/h (2 Bft)
18.09.2016 20:00 13,2 C 99 % 1010,7 hPa 0,8 l/m N 0,00 h 0 W/m 0,3 km/h (0 Bft)
18.09.2016 21:00 13,3 C 99 % 1011,0 hPa 1,2 l/m N 0,00 h 0 W/m 2,0 km/h (1 Bft)
18.09.2016 22:00 13,4 C 99 % 1011,2 hPa 1,6 l/m W 0,00 h 0 W/m 6,1 km/h (2 Bft)
18.09.2016 23:00 12,7 C 99 % 1011,5 hPa 0,4 l/m N-NO 0,00 h 0 W/m 15,2 km/h (3 Bft)
Min-Datum _ 18.09.16 13.09.16 15.09.16 - - - - 12.09.16
_ Min-Zeit 06:50 16:05 05:15 - - - - 00:00
Minimum _ 11,9 C 40 % 1006,4 hPa - - - - 0,0 km/h (0 Bft)
Max-Datum _ 13.09.16 17.09.16 12.09.16 16.09.16 - 12.09.16 16.09.16 18.09.16
_ Max-Zeit 15:40 07:35 10:25 18:15 - 07:05 13:00 10:20
Maximum _ 29,0 C 100 % 1015,9 hPa 9,2 l/m - 0,08 h 962 W/m 20,9 km/h
W-SW (4 Bft)
Durchschnitt _ 17,1 C 86 % 1011,5 hPa #48,4 l/m SW #45:05 h 269 W/m 4,6 km/h (1 Bft)